sensor_id;sensor_type;location;lat;lon;timestamp;P1;durP1;ratioP1;P2;durP2;ratioP2
39128;SDS011;24864;49.940;19.770;2022-10-22T00:01:02;61.13;;;33.97;;
39128;SDS011;24864;49.940;19.770;2022-10-22T00:03:39;63.38;;;34.47;;
39128;SDS011;24864;49.940;19.770;2022-10-22T00:06:07;59.33;;;33.53;;
39128;SDS011;24864;49.940;19.770;2022-10-22T00:08:35;58.08;;;34.08;;
39128;SDS011;24864;49.940;19.770;2022-10-22T00:11:08;69.20;;;35.45;;
39128;SDS011;24864;49.940;19.770;2022-10-22T00:13:41;58.38;;;32.63;;
39128;SDS011;24864;49.940;19.770;2022-10-22T00:16:09;53.40;;;33.80;;
39128;SDS011;24864;49.940;19.770;2022-10-22T00:18:37;59.75;;;35.00;;
39128;SDS011;24864;49.940;19.770;2022-10-22T00:21:06;59.90;;;34.55;;
39128;SDS011;24864;49.940;19.770;2022-10-22T00:23:34;63.22;;;35.65;;
39128;SDS011;24864;49.940;19.770;2022-10-22T00:26:02;70.88;;;37.53;;
39128;SDS011;24864;49.940;19.770;2022-10-22T00:28:31;76.85;;;39.22;;
39128;SDS011;24864;49.940;19.770;2022-10-22T00:30:59;81.63;;;40.20;;
39128;SDS011;24864;49.940;19.770;2022-10-22T00:33:28;70.35;;;38.28;;
39128;SDS011;24864;49.940;19.770;2022-10-22T00:35:57;64.80;;;36.03;;
39128;SDS011;24864;49.940;19.770;2022-10-22T00:38:25;61.92;;;35.83;;
39128;SDS011;24864;49.940;19.770;2022-10-22T00:40:52;63.50;;;35.42;;
39128;SDS011;24864;49.940;19.770;2022-10-22T00:43:21;63.35;;;37.22;;
39128;SDS011;24864;49.940;19.770;2022-10-22T00:45:50;69.13;;;37.92;;
39128;SDS011;24864;49.940;19.770;2022-10-22T00:48:19;64.63;;;36.25;;
39128;SDS011;24864;49.940;19.770;2022-10-22T00:50:53;61.60;;;36.25;;
39128;SDS011;24864;49.940;19.770;2022-10-22T00:53:24;62.67;;;36.05;;
39128;SDS011;24864;49.940;19.770;2022-10-22T00:55:56;63.47;;;35.80;;
39128;SDS011;24864;49.940;19.770;2022-10-22T00:58:25;69.72;;;38.22;;
39128;SDS011;24864;49.940;19.770;2022-10-22T01:00:55;69.07;;;37.50;;
39128;SDS011;24864;49.940;19.770;2022-10-22T01:03:24;67.18;;;34.33;;
39128;SDS011;24864;49.940;19.770;2022-10-22T01:05:53;57.38;;;31.50;;
39128;SDS011;24864;49.940;19.770;2022-10-22T01:08:24;50.65;;;31.23;;
39128;SDS011;24864;49.940;19.770;2022-10-22T01:11:02;59.38;;;32.97;;
39128;SDS011;24864;49.940;19.770;2022-10-22T01:13:41;56.33;;;34.15;;
39128;SDS011;24864;49.940;19.770;2022-10-22T01:16:18;57.35;;;33.70;;
39128;SDS011;24864;49.940;19.770;2022-10-22T01:18:56;64.43;;;35.47;;
39128;SDS011;24864;49.940;19.770;2022-10-22T01:21:38;53.27;;;31.23;;
39128;SDS011;24864;49.940;19.770;2022-10-22T01:24:14;57.85;;;31.23;;
39128;SDS011;24864;49.940;19.770;2022-10-22T01:26:56;54.15;;;30.95;;
39128;SDS011;24864;49.940;19.770;2022-10-22T01:29:33;60.67;;;33.83;;
39128;SDS011;24864;49.940;19.770;2022-10-22T01:32:06;61.08;;;34.30;;
39128;SDS011;24864;49.940;19.770;2022-10-22T01:34:38;61.42;;;33.78;;
39128;SDS011;24864;49.940;19.770;2022-10-22T01:37:09;53.95;;;31.90;;
39128;SDS011;24864;49.940;19.770;2022-10-22T01:39:41;58.17;;;32.28;;
39128;SDS011;24864;49.940;19.770;2022-10-22T01:42:12;55.42;;;32.47;;
39128;SDS011;24864;49.940;19.770;2022-10-22T01:44:42;59.15;;;32.20;;
39128;SDS011;24864;49.940;19.770;2022-10-22T01:47:13;55.58;;;33.47;;
39128;SDS011;24864;49.940;19.770;2022-10-22T01:52:59;61.05;;;33.05;;
39128;SDS011;24864;49.940;19.770;2022-10-22T01:55:42;59.03;;;31.50;;
39128;SDS011;24864;49.940;19.770;2022-10-22T01:58:23;57.83;;;32.78;;
39128;SDS011;24864;49.940;19.770;2022-10-22T02:01:04;54.25;;;31.55;;
39128;SDS011;24864;49.940;19.770;2022-10-22T02:03:40;60.35;;;32.83;;
39128;SDS011;24864;49.940;19.770;2022-10-22T02:06:15;62.72;;;33.67;;
39128;SDS011;24864;49.940;19.770;2022-10-22T02:08:45;74.30;;;40.03;;
39128;SDS011;24864;49.940;19.770;2022-10-22T02:11:16;64.25;;;35.85;;
39128;SDS011;24864;49.940;19.770;2022-10-22T02:13:44;61.20;;;33.30;;
39128;SDS011;24864;49.940;19.770;2022-10-22T02:16:17;60.38;;;33.65;;
39128;SDS011;24864;49.940;19.770;2022-10-22T02:18:50;58.67;;;33.58;;
39128;SDS011;24864;49.940;19.770;2022-10-22T02:21:20;60.65;;;34.63;;
39128;SDS011;24864;49.940;19.770;2022-10-22T02:23:48;56.17;;;32.25;;
39128;SDS011;24864;49.940;19.770;2022-10-22T02:26:18;60.33;;;33.30;;
39128;SDS011;24864;49.940;19.770;2022-10-22T02:28:54;58.30;;;34.22;;
39128;SDS011;24864;49.940;19.770;2022-10-22T02:31:28;58.55;;;33.65;;
39128;SDS011;24864;49.940;19.770;2022-10-22T02:34:00;59.78;;;34.47;;
39128;SDS011;24864;49.940;19.770;2022-10-22T02:36:33;62.63;;;34.50;;
39128;SDS011;24864;49.940;19.770;2022-10-22T02:39:02;56.83;;;32.75;;
39128;SDS011;24864;49.940;19.770;2022-10-22T02:41:31;61.38;;;33.15;;
39128;SDS011;24864;49.940;19.770;2022-10-22T02:43:59;54.10;;;33.03;;
39128;SDS011;24864;49.940;19.770;2022-10-22T02:46:29;58.55;;;34.60;;
39128;SDS011;24864;49.940;19.770;2022-10-22T02:48:57;59.15;;;33.67;;
39128;SDS011;24864;49.940;19.770;2022-10-22T02:51:25;59.33;;;33.40;;
39128;SDS011;24864;49.940;19.770;2022-10-22T02:53:53;56.97;;;33.22;;
39128;SDS011;24864;49.940;19.770;2022-10-22T02:56:21;58.85;;;33.47;;
39128;SDS011;24864;49.940;19.770;2022-10-22T02:58:49;57.42;;;34.22;;
39128;SDS011;24864;49.940;19.770;2022-10-22T03:01:16;54.65;;;33.03;;
39128;SDS011;24864;49.940;19.770;2022-10-22T03:03:46;60.50;;;33.28;;
39128;SDS011;24864;49.940;19.770;2022-10-22T03:06:14;61.38;;;34.03;;
39128;SDS011;24864;49.940;19.770;2022-10-22T03:08:41;57.08;;;34.28;;
39128;SDS011;24864;49.940;19.770;2022-10-22T03:11:09;58.30;;;31.70;;
39128;SDS011;24864;49.940;19.770;2022-10-22T03:13:37;58.13;;;33.47;;
39128;SDS011;24864;49.940;19.770;2022-10-22T03:16:05;64.10;;;36.15;;
39128;SDS011;24864;49.940;19.770;2022-10-22T03:18:34;62.28;;;35.75;;
39128;SDS011;24864;49.940;19.770;2022-10-22T03:21:05;64.07;;;36.35;;
39128;SDS011;24864;49.940;19.770;2022-10-22T03:23:37;61.92;;;35.25;;
39128;SDS011;24864;49.940;19.770;2022-10-22T03:26:06;64.20;;;36.85;;
39128;SDS011;24864;49.940;19.770;2022-10-22T03:28:36;62.13;;;34.53;;
39128;SDS011;24864;49.940;19.770;2022-10-22T03:31:07;61.47;;;34.42;;
39128;SDS011;24864;49.940;19.770;2022-10-22T03:33:35;60.85;;;35.53;;
39128;SDS011;24864;49.940;19.770;2022-10-22T03:36:05;65.25;;;39.05;;
39128;SDS011;24864;49.940;19.770;2022-10-22T03:38:34;69.07;;;37.80;;
39128;SDS011;24864;49.940;19.770;2022-10-22T03:41:03;70.80;;;38.50;;
39128;SDS011;24864;49.940;19.770;2022-10-22T03:43:32;64.07;;;37.17;;
39128;SDS011;24864;49.940;19.770;2022-10-22T03:46:01;71.68;;;38.10;;
39128;SDS011;24864;49.940;19.770;2022-10-22T03:48:29;60.63;;;36.97;;
39128;SDS011;24864;49.940;19.770;2022-10-22T03:50:57;55.40;;;35.25;;
39128;SDS011;24864;49.940;19.770;2022-10-22T03:53:26;63.03;;;36.90;;
39128;SDS011;24864;49.940;19.770;2022-10-22T03:55:54;57.63;;;35.30;;
39128;SDS011;24864;49.940;19.770;2022-10-22T03:58:22;67.45;;;38.67;;
39128;SDS011;24864;49.940;19.770;2022-10-22T04:00:50;69.55;;;39.80;;
39128;SDS011;24864;49.940;19.770;2022-10-22T04:03:17;59.97;;;36.13;;
39128;SDS011;24864;49.940;19.770;2022-10-22T04:05:46;67.55;;;37.45;;
39128;SDS011;24864;49.940;19.770;2022-10-22T04:08:13;63.60;;;37.75;;
39128;SDS011;24864;49.940;19.770;2022-10-22T04:10:43;65.38;;;36.92;;
39128;SDS011;24864;49.940;19.770;2022-10-22T04:13:17;62.42;;;36.10;;
39128;SDS011;24864;49.940;19.770;2022-10-22T04:15:45;75.22;;;40.72;;
39128;SDS011;24864;49.940;19.770;2022-10-22T04:18:13;72.15;;;40.42;;
39128;SDS011;24864;49.940;19.770;2022-10-22T04:20:41;76.90;;;38.97;;
39128;SDS011;24864;49.940;19.770;2022-10-22T04:23:09;64.90;;;37.47;;
39128;SDS011;24864;49.940;19.770;2022-10-22T04:25:37;69.07;;;39.28;;
39128;SDS011;24864;49.940;19.770;2022-10-22T04:28:06;70.28;;;38.00;;
39128;SDS011;24864;49.940;19.770;2022-10-22T04:30:34;66.97;;;38.88;;
39128;SDS011;24864;49.940;19.770;2022-10-22T04:33:03;75.38;;;37.78;;
39128;SDS011;24864;49.940;19.770;2022-10-22T04:35:31;69.80;;;37.50;;
39128;SDS011;24864;49.940;19.770;2022-10-22T04:37:58;64.03;;;36.80;;
39128;SDS011;24864;49.940;19.770;2022-10-22T04:40:26;62.25;;;35.42;;
39128;SDS011;24864;49.940;19.770;2022-10-22T04:42:54;68.35;;;37.15;;
39128;SDS011;24864;49.940;19.770;2022-10-22T04:45:24;58.92;;;38.17;;
39128;SDS011;24864;49.940;19.770;2022-10-22T04:47:52;68.70;;;39.45;;
39128;SDS011;24864;49.940;19.770;2022-10-22T04:50:20;71.57;;;39.35;;
39128;SDS011;24864;49.940;19.770;2022-10-22T04:52:47;65.53;;;38.30;;
39128;SDS011;24864;49.940;19.770;2022-10-22T04:55:15;60.20;;;35.60;;
39128;SDS011;24864;49.940;19.770;2022-10-22T04:57:43;69.10;;;39.10;;
39128;SDS011;24864;49.940;19.770;2022-10-22T05:00:11;69.57;;;37.15;;
39128;SDS011;24864;49.940;19.770;2022-10-22T05:02:44;76.90;;;40.50;;
39128;SDS011;24864;49.940;19.770;2022-10-22T05:05:16;73.10;;;40.10;;
39128;SDS011;24864;49.940;19.770;2022-10-22T05:07:44;65.38;;;37.47;;
39128;SDS011;24864;49.940;19.770;2022-10-22T05:10:12;71.93;;;40.40;;
39128;SDS011;24864;49.940;19.770;2022-10-22T05:12:39;72.72;;;40.35;;
39128;SDS011;24864;49.940;19.770;2022-10-22T05:15:08;73.03;;;38.13;;
39128;SDS011;24864;49.940;19.770;2022-10-22T05:17:36;67.85;;;39.05;;
39128;SDS011;24864;49.940;19.770;2022-10-22T05:20:07;67.20;;;38.08;;
39128;SDS011;24864;49.940;19.770;2022-10-22T05:22:35;64.32;;;38.88;;
39128;SDS011;24864;49.940;19.770;2022-10-22T05:25:03;63.85;;;35.83;;
39128;SDS011;24864;49.940;19.770;2022-10-22T05:27:32;63.17;;;37.97;;
39128;SDS011;24864;49.940;19.770;2022-10-22T05:30:00;62.00;;;36.70;;
39128;SDS011;24864;49.940;19.770;2022-10-22T05:32:28;65.80;;;37.80;;
39128;SDS011;24864;49.940;19.770;2022-10-22T05:34:56;68.95;;;39.10;;
39128;SDS011;24864;49.940;19.770;2022-10-22T05:37:25;68.70;;;37.22;;
39128;SDS011;24864;49.940;19.770;2022-10-22T05:39:53;62.95;;;37.05;;
39128;SDS011;24864;49.940;19.770;2022-10-22T05:42:41;64.43;;;35.42;;
39128;SDS011;24864;49.940;19.770;2022-10-22T05:45:09;61.03;;;36.10;;
39128;SDS011;24864;49.940;19.770;2022-10-22T05:47:37;61.05;;;36.30;;
39128;SDS011;24864;49.940;19.770;2022-10-22T05:50:05;61.20;;;36.88;;
39128;SDS011;24864;49.940;19.770;2022-10-22T05:52:35;60.58;;;35.35;;
39128;SDS011;24864;49.940;19.770;2022-10-22T05:55:03;64.63;;;34.78;;
39128;SDS011;24864;49.940;19.770;2022-10-22T05:57:32;61.25;;;34.13;;
39128;SDS011;24864;49.940;19.770;2022-10-22T06:00:00;55.78;;;33.30;;
39128;SDS011;24864;49.940;19.770;2022-10-22T06:02:27;65.47;;;33.35;;
39128;SDS011;24864;49.940;19.770;2022-10-22T06:04:56;60.70;;;35.63;;
39128;SDS011;24864;49.940;19.770;2022-10-22T06:07:23;62.65;;;36.90;;
39128;SDS011;24864;49.940;19.770;2022-10-22T06:09:53;69.68;;;35.83;;
39128;SDS011;24864;49.940;19.770;2022-10-22T06:12:21;60.55;;;34.67;;
39128;SDS011;24864;49.940;19.770;2022-10-22T06:14:49;61.70;;;35.50;;
39128;SDS011;24864;49.940;19.770;2022-10-22T06:17:16;64.82;;;37.17;;
39128;SDS011;24864;49.940;19.770;2022-10-22T06:19:45;61.38;;;36.67;;
39128;SDS011;24864;49.940;19.770;2022-10-22T06:22:13;60.65;;;34.70;;
39128;SDS011;24864;49.940;19.770;2022-10-22T06:24:41;51.53;;;33.10;;
39128;SDS011;24864;49.940;19.770;2022-10-22T06:27:12;56.40;;;34.58;;
39128;SDS011;24864;49.940;19.770;2022-10-22T06:29:40;55.78;;;34.05;;
39128;SDS011;24864;49.940;19.770;2022-10-22T06:32:08;60.80;;;33.65;;
39128;SDS011;24864;49.940;19.770;2022-10-22T06:34:36;59.00;;;32.72;;
39128;SDS011;24864;49.940;19.770;2022-10-22T06:37:03;50.80;;;31.30;;
39128;SDS011;24864;49.940;19.770;2022-10-22T06:39:31;48.35;;;30.73;;
39128;SDS011;24864;49.940;19.770;2022-10-22T06:41:59;47.15;;;28.75;;
39128;SDS011;24864;49.940;19.770;2022-10-22T06:44:29;48.10;;;30.42;;
39128;SDS011;24864;49.940;19.770;2022-10-22T06:46:56;49.25;;;29.25;;
39128;SDS011;24864;49.940;19.770;2022-10-22T06:49:24;46.90;;;31.08;;
39128;SDS011;24864;49.940;19.770;2022-10-22T06:51:52;48.38;;;29.15;;
39128;SDS011;24864;49.940;19.770;2022-10-22T06:54:21;44.90;;;28.83;;
39128;SDS011;24864;49.940;19.770;2022-10-22T06:56:49;46.28;;;28.85;;
39128;SDS011;24864;49.940;19.770;2022-10-22T06:59:17;48.47;;;29.95;;
39128;SDS011;24864;49.940;19.770;2022-10-22T07:01:46;47.75;;;28.98;;
39128;SDS011;24864;49.940;19.770;2022-10-22T07:04:15;58.97;;;30.52;;
39128;SDS011;24864;49.940;19.770;2022-10-22T07:06:42;49.40;;;29.98;;
39128;SDS011;24864;49.940;19.770;2022-10-22T07:09:10;58.72;;;34.63;;
39128;SDS011;24864;49.940;19.770;2022-10-22T07:11:39;65.88;;;39.67;;
39128;SDS011;24864;49.940;19.770;2022-10-22T07:14:08;62.58;;;39.10;;
39128;SDS011;24864;49.940;19.770;2022-10-22T07:16:37;73.35;;;44.60;;
39128;SDS011;24864;49.940;19.770;2022-10-22T07:19:08;71.65;;;43.53;;
39128;SDS011;24864;49.940;19.770;2022-10-22T07:21:36;66.32;;;42.45;;
39128;SDS011;24864;49.940;19.770;2022-10-22T07:24:05;69.32;;;41.55;;
39128;SDS011;24864;49.940;19.770;2022-10-22T07:26:33;70.13;;;42.65;;
39128;SDS011;24864;49.940;19.770;2022-10-22T07:29:02;68.35;;;37.75;;
39128;SDS011;24864;49.940;19.770;2022-10-22T07:31:30;57.38;;;35.08;;
39128;SDS011;24864;49.940;19.770;2022-10-22T07:33:58;48.20;;;31.20;;
39128;SDS011;24864;49.940;19.770;2022-10-22T07:36:27;49.60;;;28.52;;
39128;SDS011;24864;49.940;19.770;2022-10-22T07:38:56;43.53;;;28.33;;
39128;SDS011;24864;49.940;19.770;2022-10-22T07:41:25;47.92;;;28.42;;
39128;SDS011;24864;49.940;19.770;2022-10-22T07:43:55;53.40;;;30.83;;
39128;SDS011;24864;49.940;19.770;2022-10-22T07:46:24;38.60;;;24.67;;
39128;SDS011;24864;49.940;19.770;2022-10-22T07:48:53;42.17;;;27.75;;
39128;SDS011;24864;49.940;19.770;2022-10-22T07:51:20;46.70;;;28.05;;
39128;SDS011;24864;49.940;19.770;2022-10-22T07:53:50;41.72;;;27.33;;
39128;SDS011;24864;49.940;19.770;2022-10-22T07:56:19;46.17;;;27.33;;
39128;SDS011;24864;49.940;19.770;2022-10-22T07:58:47;43.63;;;27.67;;
39128;SDS011;24864;49.940;19.770;2022-10-22T08:01:15;44.13;;;26.67;;
39128;SDS011;24864;49.940;19.770;2022-10-22T08:03:43;37.80;;;26.20;;
39128;SDS011;24864;49.940;19.770;2022-10-22T08:06:11;41.10;;;26.38;;
39128;SDS011;24864;49.940;19.770;2022-10-22T08:08:40;37.65;;;25.85;;
39128;SDS011;24864;49.940;19.770;2022-10-22T08:11:10;37.53;;;23.88;;
39128;SDS011;24864;49.940;19.770;2022-10-22T08:13:38;34.58;;;23.42;;
39128;SDS011;24864;49.940;19.770;2022-10-22T08:16:11;39.10;;;23.65;;
39128;SDS011;24864;49.940;19.770;2022-10-22T08:18:39;40.08;;;25.58;;
39128;SDS011;24864;49.940;19.770;2022-10-22T08:21:08;40.63;;;25.58;;
39128;SDS011;24864;49.940;19.770;2022-10-22T08:23:36;35.90;;;25.02;;
39128;SDS011;24864;49.940;19.770;2022-10-22T08:26:04;39.80;;;27.50;;
39128;SDS011;24864;49.940;19.770;2022-10-22T08:28:33;48.55;;;28.95;;
39128;SDS011;24864;49.940;19.770;2022-10-22T08:31:03;38.70;;;25.42;;
39128;SDS011;24864;49.940;19.770;2022-10-22T08:33:31;51.42;;;29.80;;
39128;SDS011;24864;49.940;19.770;2022-10-22T08:35:59;58.35;;;31.30;;
39128;SDS011;24864;49.940;19.770;2022-10-22T08:38:27;55.25;;;29.98;;
39128;SDS011;24864;49.940;19.770;2022-10-22T08:40:59;42.40;;;24.88;;
39128;SDS011;24864;49.940;19.770;2022-10-22T08:43:43;38.90;;;24.45;;
39128;SDS011;24864;49.940;19.770;2022-10-22T08:46:25;37.33;;;22.98;;
39128;SDS011;24864;49.940;19.770;2022-10-22T08:49:08;34.72;;;23.90;;
39128;SDS011;24864;49.940;19.770;2022-10-22T08:51:40;38.05;;;24.08;;
39128;SDS011;24864;49.940;19.770;2022-10-22T08:54:14;37.22;;;24.08;;
39128;SDS011;24864;49.940;19.770;2022-10-22T08:56:51;40.38;;;25.20;;
39128;SDS011;24864;49.940;19.770;2022-10-22T08:59:30;37.15;;;24.23;;
39128;SDS011;24864;49.940;19.770;2022-10-22T09:02:03;35.88;;;23.52;;
39128;SDS011;24864;49.940;19.770;2022-10-22T09:04:42;36.35;;;23.23;;
39128;SDS011;24864;49.940;19.770;2022-10-22T09:07:14;41.63;;;24.90;;
39128;SDS011;24864;49.940;19.770;2022-10-22T09:09:44;37.97;;;25.75;;
39128;SDS011;24864;49.940;19.770;2022-10-22T09:12:17;36.42;;;23.02;;
39128;SDS011;24864;49.940;19.770;2022-10-22T09:14:50;33.55;;;22.98;;
39128;SDS011;24864;49.940;19.770;2022-10-22T09:17:19;54.05;;;30.00;;
39128;SDS011;24864;49.940;19.770;2022-10-22T09:19:55;68.55;;;35.85;;
39128;SDS011;24864;49.940;19.770;2022-10-22T09:22:32;41.55;;;24.80;;
39128;SDS011;24864;49.940;19.770;2022-10-22T09:25:10;41.70;;;24.65;;
39128;SDS011;24864;49.940;19.770;2022-10-22T09:27:45;40.42;;;26.30;;
39128;SDS011;24864;49.940;19.770;2022-10-22T09:30:16;39.08;;;25.90;;
39128;SDS011;24864;49.940;19.770;2022-10-22T09:32:46;31.90;;;22.38;;
39128;SDS011;24864;49.940;19.770;2022-10-22T09:35:20;39.77;;;24.43;;
39128;SDS011;24864;49.940;19.770;2022-10-22T09:37:50;40.78;;;23.88;;
39128;SDS011;24864;49.940;19.770;2022-10-22T09:40:20;35.78;;;22.63;;
39128;SDS011;24864;49.940;19.770;2022-10-22T09:42:49;41.20;;;22.40;;
39128;SDS011;24864;49.940;19.770;2022-10-22T09:45:20;29.38;;;20.77;;
39128;SDS011;24864;49.940;19.770;2022-10-22T09:48:01;29.75;;;20.38;;
39128;SDS011;24864;49.940;19.770;2022-10-22T09:50:38;33.35;;;20.23;;
39128;SDS011;24864;49.940;19.770;2022-10-22T09:53:11;31.50;;;20.95;;
39128;SDS011;24864;49.940;19.770;2022-10-22T09:55:41;36.07;;;21.60;;
39128;SDS011;24864;49.940;19.770;2022-10-22T09:58:10;28.90;;;19.52;;
39128;SDS011;24864;49.940;19.770;2022-10-22T10:00:42;36.45;;;20.90;;
39128;SDS011;24864;49.940;19.770;2022-10-22T10:03:14;35.65;;;21.83;;
39128;SDS011;24864;49.940;19.770;2022-10-22T10:05:45;31.77;;;21.08;;
39128;SDS011;24864;49.940;19.770;2022-10-22T10:08:15;34.13;;;21.33;;
39128;SDS011;24864;49.940;19.770;2022-10-22T10:10:46;34.03;;;22.08;;
39128;SDS011;24864;49.940;19.770;2022-10-22T10:13:25;36.90;;;21.42;;
39128;SDS011;24864;49.940;19.770;2022-10-22T10:16:08;34.65;;;22.80;;
39128;SDS011;24864;49.940;19.770;2022-10-22T10:18:55;35.42;;;23.48;;
39128;SDS011;24864;49.940;19.770;2022-10-22T10:21:36;40.42;;;24.25;;
39128;SDS011;24864;49.940;19.770;2022-10-22T10:24:16;39.03;;;25.40;;
39128;SDS011;24864;49.940;19.770;2022-10-22T10:26:53;38.63;;;25.08;;
39128;SDS011;24864;49.940;19.770;2022-10-22T10:29:30;40.58;;;26.05;;
39128;SDS011;24864;49.940;19.770;2022-10-22T10:32:11;49.97;;;26.05;;
39128;SDS011;24864;49.940;19.770;2022-10-22T10:34:56;41.42;;;27.40;;
39128;SDS011;24864;49.940;19.770;2022-10-22T10:37:39;45.17;;;27.35;;
39128;SDS011;24864;49.940;19.770;2022-10-22T10:40:16;46.45;;;26.33;;
39128;SDS011;24864;49.940;19.770;2022-10-22T10:42:50;47.33;;;28.08;;
39128;SDS011;24864;49.940;19.770;2022-10-22T10:45:23;44.25;;;27.88;;
39128;SDS011;24864;49.940;19.770;2022-10-22T10:48:11;42.40;;;28.58;;
39128;SDS011;24864;49.940;19.770;2022-10-22T10:50:49;47.63;;;30.33;;
39128;SDS011;24864;49.940;19.770;2022-10-22T10:53:29;45.50;;;29.88;;
39128;SDS011;24864;49.940;19.770;2022-10-22T10:56:16;53.35;;;30.08;;
39128;SDS011;24864;49.940;19.770;2022-10-22T10:58:57;55.85;;;32.55;;
39128;SDS011;24864;49.940;19.770;2022-10-22T11:01:35;49.08;;;30.73;;
39128;SDS011;24864;49.940;19.770;2022-10-22T11:04:22;58.83;;;33.25;;
39128;SDS011;24864;49.940;19.770;2022-10-22T11:07:08;49.38;;;32.55;;
39128;SDS011;24864;49.940;19.770;2022-10-22T11:10:00;51.15;;;33.17;;
39128;SDS011;24864;49.940;19.770;2022-10-22T11:12:32;54.53;;;33.97;;
39128;SDS011;24864;49.940;19.770;2022-10-22T11:15:06;52.90;;;32.75;;
39128;SDS011;24864;49.940;19.770;2022-10-22T11:17:43;57.17;;;34.90;;
39128;SDS011;24864;49.940;19.770;2022-10-22T11:22:46;54.95;;;34.25;;
39128;SDS011;24864;49.940;19.770;2022-10-22T11:25:41;53.67;;;32.88;;
39128;SDS011;24864;49.940;19.770;2022-10-22T11:28:12;49.20;;;32.63;;
39128;SDS011;24864;49.940;19.770;2022-10-22T11:30:44;56.00;;;30.83;;
39128;SDS011;24864;49.940;19.770;2022-10-22T11:33:17;68.80;;;34.08;;
39128;SDS011;24864;49.940;19.770;2022-10-22T11:35:50;59.45;;;35.38;;
39128;SDS011;24864;49.940;19.770;2022-10-22T11:38:21;57.15;;;36.50;;
39128;SDS011;24864;49.940;19.770;2022-10-22T11:40:53;57.28;;;37.05;;
39128;SDS011;24864;49.940;19.770;2022-10-22T11:43:26;55.67;;;37.03;;
39128;SDS011;24864;49.940;19.770;2022-10-22T11:45:59;64.00;;;37.63;;
39128;SDS011;24864;49.940;19.770;2022-10-22T11:48:33;60.38;;;37.08;;
39128;SDS011;24864;49.940;19.770;2022-10-22T11:51:27;65.50;;;37.10;;
39128;SDS011;24864;49.940;19.770;2022-10-22T11:53:56;60.70;;;37.90;;
39128;SDS011;24864;49.940;19.770;2022-10-22T11:56:35;63.40;;;37.75;;
39128;SDS011;24864;49.940;19.770;2022-10-22T11:59:05;64.22;;;37.55;;
39128;SDS011;24864;49.940;19.770;2022-10-22T12:01:55;61.92;;;38.60;;
39128;SDS011;24864;49.940;19.770;2022-10-22T12:04:23;67.90;;;39.60;;
39128;SDS011;24864;49.940;19.770;2022-10-22T12:09:58;67.07;;;43.22;;
39128;SDS011;24864;49.940;19.770;2022-10-22T12:12:27;71.35;;;42.00;;
39128;SDS011;24864;49.940;19.770;2022-10-22T12:17:49;78.85;;;47.70;;
39128;SDS011;24864;49.940;19.770;2022-10-22T12:20:17;70.38;;;45.17;;
39128;SDS011;24864;49.940;19.770;2022-10-22T12:22:47;71.97;;;44.10;;
39128;SDS011;24864;49.940;19.770;2022-10-22T12:25:16;61.15;;;41.97;;
39128;SDS011;24864;49.940;19.770;2022-10-22T12:27:48;68.22;;;45.22;;
39128;SDS011;24864;49.940;19.770;2022-10-22T12:30:19;73.45;;;47.25;;
39128;SDS011;24864;49.940;19.770;2022-10-22T12:32:50;80.20;;;54.45;;
39128;SDS011;24864;49.940;19.770;2022-10-22T12:35:20;72.43;;;53.33;;
39128;SDS011;24864;49.940;19.770;2022-10-22T12:37:53;68.60;;;47.92;;
39128;SDS011;24864;49.940;19.770;2022-10-22T12:40:23;75.72;;;49.35;;
39128;SDS011;24864;49.940;19.770;2022-10-22T12:42:54;68.55;;;46.47;;
39128;SDS011;24864;49.940;19.770;2022-10-22T12:45:25;79.38;;;48.33;;
39128;SDS011;24864;49.940;19.770;2022-10-22T12:47:55;84.40;;;51.10;;
39128;SDS011;24864;49.940;19.770;2022-10-22T12:50:30;87.18;;;54.83;;
39128;SDS011;24864;49.940;19.770;2022-10-22T12:53:05;80.25;;;51.35;;
39128;SDS011;24864;49.940;19.770;2022-10-22T12:55:33;83.07;;;52.10;;
39128;SDS011;24864;49.940;19.770;2022-10-22T12:58:03;87.03;;;57.28;;
39128;SDS011;24864;49.940;19.770;2022-10-22T13:00:33;79.60;;;52.92;;
39128;SDS011;24864;49.940;19.770;2022-10-22T13:03:02;91.65;;;54.90;;
39128;SDS011;24864;49.940;19.770;2022-10-22T13:05:33;82.78;;;54.67;;
39128;SDS011;24864;49.940;19.770;2022-10-22T13:08:07;84.55;;;55.15;;
39128;SDS011;24864;49.940;19.770;2022-10-22T13:10:37;86.18;;;55.50;;
39128;SDS011;24864;49.940;19.770;2022-10-22T13:13:26;87.18;;;54.17;;
39128;SDS011;24864;49.940;19.770;2022-10-22T13:16:14;73.93;;;47.50;;
39128;SDS011;24864;49.940;19.770;2022-10-22T13:18:44;78.90;;;48.88;;
39128;SDS011;24864;49.940;19.770;2022-10-22T13:21:28;91.97;;;56.10;;
39128;SDS011;24864;49.940;19.770;2022-10-22T13:24:16;90.78;;;55.85;;
39128;SDS011;24864;49.940;19.770;2022-10-22T13:26:47;91.40;;;60.60;;
39128;SDS011;24864;49.940;19.770;2022-10-22T13:29:16;94.03;;;59.92;;
39128;SDS011;24864;49.940;19.770;2022-10-22T13:31:47;91.25;;;59.40;;
39128;SDS011;24864;49.940;19.770;2022-10-22T13:34:18;92.20;;;58.53;;
39128;SDS011;24864;49.940;19.770;2022-10-22T13:36:47;90.13;;;58.70;;
39128;SDS011;24864;49.940;19.770;2022-10-22T13:39:17;81.90;;;49.00;;
39128;SDS011;24864;49.940;19.770;2022-10-22T13:41:45;72.15;;;47.65;;
39128;SDS011;24864;49.940;19.770;2022-10-22T13:44:15;68.57;;;45.40;;
39128;SDS011;24864;49.940;19.770;2022-10-22T13:46:43;70.57;;;46.08;;
39128;SDS011;24864;49.940;19.770;2022-10-22T13:49:12;72.40;;;49.25;;
39128;SDS011;24864;49.940;19.770;2022-10-22T13:51:42;80.85;;;51.47;;
39128;SDS011;24864;49.940;19.770;2022-10-22T13:54:12;84.10;;;53.92;;
39128;SDS011;24864;49.940;19.770;2022-10-22T13:56:44;94.28;;;61.65;;
39128;SDS011;24864;49.940;19.770;2022-10-22T13:59:12;93.50;;;60.95;;
39128;SDS011;24864;49.940;19.770;2022-10-22T14:01:45;87.18;;;59.38;;
39128;SDS011;24864;49.940;19.770;2022-10-22T14:04:13;92.43;;;60.80;;
39128;SDS011;24864;49.940;19.770;2022-10-22T14:06:41;91.43;;;62.17;;
39128;SDS011;24864;49.940;19.770;2022-10-22T14:09:09;88.35;;;56.75;;
39128;SDS011;24864;49.940;19.770;2022-10-22T14:11:41;87.05;;;54.25;;
39128;SDS011;24864;49.940;19.770;2022-10-22T14:14:11;84.53;;;56.97;;
39128;SDS011;24864;49.940;19.770;2022-10-22T14:16:42;98.78;;;61.30;;
39128;SDS011;24864;49.940;19.770;2022-10-22T14:19:12;128.00;;;86.72;;
39128;SDS011;24864;49.940;19.770;2022-10-22T14:21:42;127.28;;;83.72;;
39128;SDS011;24864;49.940;19.770;2022-10-22T14:24:11;124.60;;;80.55;;
39128;SDS011;24864;49.940;19.770;2022-10-22T14:26:39;138.68;;;94.13;;
39128;SDS011;24864;49.940;19.770;2022-10-22T14:29:07;141.65;;;99.90;;
39128;SDS011;24864;49.940;19.770;2022-10-22T14:31:39;112.03;;;76.35;;
39128;SDS011;24864;49.940;19.770;2022-10-22T14:34:11;108.63;;;73.97;;
39128;SDS011;24864;49.940;19.770;2022-10-22T14:36:41;107.28;;;69.95;;
39128;SDS011;24864;49.940;19.770;2022-10-22T14:39:10;93.22;;;63.08;;
39128;SDS011;24864;49.940;19.770;2022-10-22T14:41:38;100.97;;;66.53;;
39128;SDS011;24864;49.940;19.770;2022-10-22T14:44:08;104.18;;;67.82;;